RNA51 VNKT-VGHS
Flight info
| Callsign | RNA51 |
|---|---|
| Flight time | 1h 0m |
| Altitude | 37000 |
| Route | IGRIS1E AHALE R344 RAJ G463 OLPAS |
| Aircraft | A332/H-SDE3GHIJ2J3J5M1RVWXY/LB2D1 |
Departure
| Time | 2026-05-05 18:59 |
|---|---|
| Airport | Tribhuvan International Airport (VNKT) |
Arrival
| Time | 2026-05-05 20:00 |
|---|---|
| Airport | Hazrat Shahjalal International Airport (VGHS) |
| Time | Latitude | Longitude | Altitude | Speed | Heading |
|---|---|---|---|---|---|
| 2026-05-05 18:31 | 27.69932 | 85.35829 | 4393 ft | 0 kts | 291° |
| 2026-05-05 18:46 | 27.69929 | 85.35838 | 4394 ft | 3 kts | 291° |
| 2026-05-05 18:46 | 27.69921 | 85.35861 | 4394 ft | 3 kts | 291° |
| 2026-05-05 18:47 | 27.69914 | 85.35881 | 4398 ft | 3 kts | 304° |
| 2026-05-05 18:47 | 27.69899 | 85.35898 | 4399 ft | 5 kts | 340° |
| 2026-05-05 18:47 | 27.69881 | 85.35899 | 4400 ft | 3 kts | 22° |
| 2026-05-05 18:47 | 27.69860 | 85.35890 | 4399 ft | 3 kts | 22° |
| 2026-05-05 18:48 | 27.69856 | 85.35888 | 4399 ft | 1 kts | 22° |
| 2026-05-05 18:53 | 27.69860 | 85.35890 | 4399 ft | 2 kts | 22° |
| 2026-05-05 18:53 | 27.69893 | 85.35905 | 4400 ft | 8 kts | 22° |
| 2026-05-05 18:53 | 27.69960 | 85.35935 | 4401 ft | 13 kts | 22° |
| 2026-05-05 18:53 | 27.70063 | 85.35982 | 4402 ft | 18 kts | 22° |
| 2026-05-05 18:54 | 27.70174 | 85.36032 | 4406 ft | 16 kts | 22° |
| 2026-05-05 18:54 | 27.70277 | 85.36079 | 4409 ft | 16 kts | 22° |
| 2026-05-05 18:54 | 27.70379 | 85.36126 | 4410 ft | 16 kts | 22° |
| 2026-05-05 18:54 | 27.70482 | 85.36172 | 4412 ft | 16 kts | 22° |
| 2026-05-05 18:55 | 27.70567 | 85.36244 | 4412 ft | 16 kts | 63° |
| 2026-05-05 18:55 | 27.70620 | 85.36348 | 4411 ft | 16 kts | 37° |
| 2026-05-05 18:55 | 27.70721 | 85.36398 | 4411 ft | 17 kts | 22° |
| 2026-05-05 18:55 | 27.70831 | 85.36461 | 4407 ft | 19 kts | 43° |
| 2026-05-05 18:56 | 27.70898 | 85.36537 | 4404 ft | 7 kts | 358° |
| 2026-05-05 18:56 | 27.70919 | 85.36508 | 4404 ft | 5 kts | 291° |
| 2026-05-05 18:56 | 27.70904 | 85.36477 | 4404 ft | 4 kts | 210° |
| 2026-05-05 18:56 | 27.70873 | 85.36467 | 4405 ft | 4 kts | 202° |
| 2026-05-05 18:57 | 27.70872 | 85.36466 | 4405 ft | 0 kts | 202° |
| 2026-05-05 18:58 | 27.70863 | 85.36462 | 4406 ft | 7 kts | 202° |
| 2026-05-05 18:59 | 27.70662 | 85.36370 | 4411 ft | 62 kts | 202° |
| 2026-05-05 18:59 | 27.70076 | 85.36105 | 4405 ft | 121 kts | 202° |
| 2026-05-05 18:59 | 27.69115 | 85.35670 | 4397 ft | 174 kts | 200° |
| 2026-05-05 18:59 | 27.67968 | 85.35142 | 5078 ft | 180 kts | 202° |
| 2026-05-05 19:00 | 27.66787 | 85.34533 | 5775 ft | 195 kts | 210° |
| 2026-05-05 19:00 | 27.65701 | 85.33531 | 6391 ft | 206 kts | 231° |
| 2026-05-05 19:00 | 27.65053 | 85.32141 | 6894 ft | 198 kts | 255° |
| 2026-05-05 19:00 | 27.64949 | 85.30606 | 7327 ft | 198 kts | 277° |
| 2026-05-05 19:01 | 27.65378 | 85.29139 | 7808 ft | 198 kts | 299° |
| 2026-05-05 19:01 | 27.66243 | 85.27929 | 8289 ft | 200 kts | 318° |
| 2026-05-05 19:01 | 27.67427 | 85.27060 | 8686 ft | 209 kts | 336° |
| 2026-05-05 19:01 | 27.68864 | 85.26634 | 9032 ft | 222 kts | 354° |
| 2026-05-05 19:02 | 27.70412 | 85.26771 | 9373 ft | 230 kts | 14° |
| 2026-05-05 19:02 | 27.71867 | 85.27519 | 9762 ft | 232 kts | 34° |
| 2026-05-05 19:02 | 27.73036 | 85.28827 | 10134 ft | 247 kts | 54° |
| 2026-05-05 19:02 | 27.73894 | 85.30560 | 10481 ft | 258 kts | 64° |
| 2026-05-05 19:03 | 27.74668 | 85.32458 | 10872 ft | 277 kts | 65° |
| 2026-05-05 19:03 | 27.75434 | 85.34546 | 11215 ft | 295 kts | 71° |
| 2026-05-05 19:03 | 27.75803 | 85.36844 | 11574 ft | 301 kts | 88° |
| 2026-05-05 19:03 | 27.75522 | 85.39187 | 11943 ft | 304 kts | 107° |
| 2026-05-05 19:04 | 27.74578 | 85.41320 | 12324 ft | 305 kts | 127° |
| 2026-05-05 19:04 | 27.73065 | 85.42991 | 12878 ft | 306 kts | 146° |
| 2026-05-05 19:04 | 27.71176 | 85.44129 | 13248 ft | 312 kts | 156° |
| 2026-05-05 19:04 | 27.69206 | 85.45209 | 13444 ft | 315 kts | 152° |
| 2026-05-05 19:05 | 27.67374 | 85.46560 | 13833 ft | 315 kts | 142° |
| 2026-05-05 19:05 | 27.65778 | 85.48264 | 14178 ft | 318 kts | 132° |
| 2026-05-05 19:05 | 27.64475 | 85.50290 | 14526 ft | 321 kts | 121° |
| 2026-05-05 19:05 | 27.63491 | 85.52618 | 14822 ft | 340 kts | 111° |
| 2026-05-05 19:06 | 27.62727 | 85.55190 | 15069 ft | 360 kts | 108° |
| 2026-05-05 19:06 | 27.61990 | 85.57945 | 15457 ft | 374 kts | 107° |
| 2026-05-05 19:06 | 27.61240 | 85.60794 | 15999 ft | 382 kts | 107° |
| 2026-05-05 19:06 | 27.60477 | 85.63681 | 16634 ft | 387 kts | 108° |
| 2026-05-05 19:07 | 27.59700 | 85.66604 | 17301 ft | 392 kts | 108° |
| 2026-05-05 19:07 | 27.58812 | 85.69521 | 17953 ft | 396 kts | 113° |
| 2026-05-05 19:07 | 27.57620 | 85.72328 | 18562 ft | 399 kts | 122° |
| 2026-05-05 19:07 | 27.56086 | 85.74941 | 19132 ft | 401 kts | 130° |
| 2026-05-05 19:08 | 27.54231 | 85.77300 | 19696 ft | 402 kts | 139° |
| 2026-05-05 19:08 | 27.52168 | 85.79435 | 20274 ft | 404 kts | 142° |
| 2026-05-05 19:08 | 27.50045 | 85.81534 | 20868 ft | 408 kts | 142° |
| 2026-05-05 19:08 | 27.47903 | 85.83648 | 21436 ft | 411 kts | 142° |
| 2026-05-05 19:09 | 27.45747 | 85.85787 | 22004 ft | 415 kts | 142° |
| 2026-05-05 19:09 | 27.43567 | 85.87957 | 22570 ft | 419 kts | 143° |
| 2026-05-05 19:09 | 27.41377 | 85.90140 | 23115 ft | 422 kts | 143° |
| 2026-05-05 19:09 | 27.39167 | 85.92346 | 23619 ft | 427 kts | 143° |
| 2026-05-05 19:10 | 27.36930 | 85.94580 | 23924 ft | 432 kts | 143° |
| 2026-05-05 19:10 | 27.34697 | 85.96809 | 24355 ft | 434 kts | 143° |
| 2026-05-05 19:10 | 27.32436 | 85.99064 | 24790 ft | 436 kts | 143° |
| 2026-05-05 19:10 | 27.30160 | 86.01331 | 25226 ft | 438 kts | 143° |
| 2026-05-05 19:11 | 27.27869 | 86.03616 | 25645 ft | 441 kts | 143° |
| 2026-05-05 19:11 | 27.25570 | 86.05908 | 26079 ft | 443 kts | 143° |
| 2026-05-05 19:11 | 27.23253 | 86.08217 | 26529 ft | 445 kts | 143° |
| 2026-05-05 19:11 | 27.20944 | 86.10554 | 26967 ft | 449 kts | 141° |
| 2026-05-05 19:12 | 27.18829 | 86.13181 | 27386 ft | 457 kts | 134° |
| 2026-05-05 19:12 | 27.16887 | 86.16040 | 27781 ft | 462 kts | 131° |
| 2026-05-05 19:12 | 27.15017 | 86.18996 | 28210 ft | 466 kts | 130° |
| 2026-05-05 19:12 | 27.13171 | 86.22011 | 28577 ft | 471 kts | 129° |
| 2026-05-05 19:13 | 27.11320 | 86.25061 | 28917 ft | 475 kts | 129° |
| 2026-05-05 19:13 | 27.09462 | 86.28109 | 29140 ft | 482 kts | 129° |
| 2026-05-05 19:13 | 27.07557 | 86.31210 | 29521 ft | 485 kts | 130° |
| 2026-05-05 19:13 | 27.05630 | 86.34327 | 29897 ft | 487 kts | 130° |
| 2026-05-05 19:14 | 27.03685 | 86.37454 | 30221 ft | 490 kts | 130° |
| 2026-05-05 19:14 | 27.01724 | 86.40597 | 30559 ft | 492 kts | 130° |
| 2026-05-05 19:14 | 26.99755 | 86.43749 | 30896 ft | 494 kts | 130° |
| 2026-05-05 19:14 | 26.97777 | 86.46910 | 31234 ft | 496 kts | 131° |
| 2026-05-05 19:15 | 26.95785 | 86.50091 | 31573 ft | 499 kts | 131° |
| 2026-05-05 19:15 | 26.93786 | 86.53281 | 31898 ft | 501 kts | 131° |
| 2026-05-05 19:15 | 26.91787 | 86.56473 | 32400 ft | 499 kts | 131° |
| 2026-05-05 19:15 | 26.89815 | 86.59620 | 32845 ft | 499 kts | 131° |
| 2026-05-05 19:16 | 26.87819 | 86.62804 | 33272 ft | 499 kts | 132° |
| 2026-05-05 19:16 | 26.85827 | 86.65976 | 33760 ft | 498 kts | 132° |
| 2026-05-05 19:16 | 26.83833 | 86.69135 | 34183 ft | 496 kts | 133° |
| 2026-05-05 19:16 | 26.81806 | 86.72335 | 34447 ft | 497 kts | 132° |
| 2026-05-05 19:17 | 26.79826 | 86.75452 | 34664 ft | 500 kts | 132° |
| 2026-05-05 19:17 | 26.77803 | 86.78634 | 34963 ft | 502 kts | 132° |
| 2026-05-05 19:17 | 26.75781 | 86.81818 | 35289 ft | 502 kts | 132° |
| 2026-05-05 19:17 | 26.73751 | 86.85011 | 35585 ft | 503 kts | 131° |
| 2026-05-05 19:18 | 26.71723 | 86.88202 | 35875 ft | 504 kts | 131° |
| 2026-05-05 19:18 | 26.69687 | 86.91402 | 36144 ft | 505 kts | 131° |
| 2026-05-05 19:18 | 26.67644 | 86.94611 | 36438 ft | 506 kts | 131° |
| 2026-05-05 19:18 | 26.65629 | 86.97774 | 36723 ft | 507 kts | 131° |
| 2026-05-05 19:19 | 26.63554 | 87.01029 | 36884 ft | 507 kts | 131° |
| 2026-05-05 19:19 | 26.61507 | 87.04240 | 36895 ft | 506 kts | 131° |
| 2026-05-05 19:19 | 26.57455 | 87.10589 | 36878 ft | 505 kts | 131° |
| 2026-05-05 19:20 | 26.53377 | 87.16966 | 36850 ft | 505 kts | 131° |
| 2026-05-05 19:20 | 26.48960 | 87.22983 | 36876 ft | 493 kts | 145° |
| 2026-05-05 19:21 | 26.46275 | 87.25281 | 36858 ft | 481 kts | 156° |
| 2026-05-05 19:21 | 26.43345 | 87.26973 | 36861 ft | 472 kts | 164° |
| 2026-05-05 19:21 | 26.37323 | 87.29696 | 36859 ft | 468 kts | 167° |
| 2026-05-05 19:22 | 26.31177 | 87.32002 | 36857 ft | 464 kts | 171° |
| 2026-05-05 19:22 | 26.24982 | 87.34028 | 36856 ft | 464 kts | 172° |
| 2026-05-05 19:23 | 26.18763 | 87.36072 | 36851 ft | 466 kts | 171° |
| 2026-05-05 19:23 | 26.13599 | 87.37810 | 36851 ft | 467 kts | 171° |
| 2026-05-05 19:24 | 26.07374 | 87.39931 | 36855 ft | 467 kts | 171° |
| 2026-05-05 19:24 | 26.01156 | 87.42054 | 36856 ft | 467 kts | 171° |
| 2026-05-05 19:25 | 25.94941 | 87.44172 | 36856 ft | 467 kts | 171° |
| 2026-05-05 19:25 | 25.88728 | 87.46283 | 36854 ft | 468 kts | 171° |
| 2026-05-05 19:26 | 25.82479 | 87.48403 | 36854 ft | 470 kts | 171° |
| 2026-05-05 19:26 | 25.76220 | 87.50525 | 36854 ft | 470 kts | 171° |
| 2026-05-05 19:27 | 25.70000 | 87.52633 | 36853 ft | 470 kts | 171° |
| 2026-05-05 19:27 | 25.63769 | 87.54844 | 36854 ft | 475 kts | 165° |
| 2026-05-05 19:28 | 25.57984 | 87.58615 | 36847 ft | 490 kts | 150° |
| 2026-05-05 19:28 | 25.52563 | 87.63282 | 36845 ft | 494 kts | 147° |
| 2026-05-05 19:29 | 25.47224 | 87.68109 | 36843 ft | 495 kts | 147° |
| 2026-05-05 19:29 | 25.41880 | 87.72921 | 36841 ft | 495 kts | 148° |
| 2026-05-05 19:30 | 25.36560 | 87.77663 | 36842 ft | 493 kts | 148° |
| 2026-05-05 19:30 | 25.31205 | 87.82408 | 36843 ft | 493 kts | 148° |
| 2026-05-05 19:31 | 25.25853 | 87.87141 | 36835 ft | 493 kts | 148° |
| 2026-05-05 19:31 | 25.20490 | 87.91881 | 36837 ft | 493 kts | 148° |
| 2026-05-05 19:32 | 25.15122 | 87.96620 | 36838 ft | 493 kts | 148° |
| 2026-05-05 19:32 | 25.09763 | 88.01348 | 36838 ft | 493 kts | 148° |
| 2026-05-05 19:33 | 25.04430 | 88.06047 | 36830 ft | 493 kts | 148° |
| 2026-05-05 19:33 | 24.99068 | 88.10766 | 36819 ft | 493 kts | 148° |
| 2026-05-05 19:34 | 24.93687 | 88.15495 | 36829 ft | 495 kts | 148° |
| 2026-05-05 19:35 | 24.85651 | 88.22712 | 36830 ft | 498 kts | 146° |
| 2026-05-05 19:35 | 24.80366 | 88.27659 | 36660 ft | 503 kts | 146° |
| 2026-05-05 19:35 | 24.77680 | 88.30174 | 35973 ft | 508 kts | 146° |
| 2026-05-05 19:36 | 24.75003 | 88.32672 | 35128 ft | 514 kts | 146° |
| 2026-05-05 19:36 | 24.72272 | 88.35218 | 34381 ft | 516 kts | 146° |
| 2026-05-05 19:36 | 24.69520 | 88.37778 | 33538 ft | 520 kts | 146° |
| 2026-05-05 19:36 | 24.66754 | 88.40348 | 32713 ft | 521 kts | 146° |
| 2026-05-05 19:37 | 24.63989 | 88.42916 | 31941 ft | 520 kts | 146° |
| 2026-05-05 19:37 | 24.61224 | 88.45482 | 31159 ft | 520 kts | 146° |
| 2026-05-05 19:37 | 24.58477 | 88.48030 | 30641 ft | 513 kts | 145° |
| 2026-05-05 19:37 | 24.55768 | 88.50544 | 30128 ft | 507 kts | 145° |
| 2026-05-05 19:38 | 24.53088 | 88.53029 | 29530 ft | 501 kts | 145° |
| 2026-05-05 19:38 | 24.50436 | 88.55484 | 28970 ft | 495 kts | 145° |
| 2026-05-05 19:38 | 24.47822 | 88.57902 | 28430 ft | 488 kts | 145° |
| 2026-05-05 19:38 | 24.45327 | 88.60420 | 27892 ft | 488 kts | 135° |
| 2026-05-05 19:39 | 24.43438 | 88.63527 | 27324 ft | 492 kts | 120° |
| 2026-05-05 19:39 | 24.41998 | 88.66929 | 26767 ft | 489 kts | 116° |
| 2026-05-05 19:39 | 24.40739 | 88.70383 | 26231 ft | 486 kts | 114° |
| 2026-05-05 19:39 | 24.39600 | 88.73803 | 25671 ft | 482 kts | 112° |
| 2026-05-05 19:40 | 24.38490 | 88.77258 | 25121 ft | 478 kts | 112° |
| 2026-05-05 19:40 | 24.37391 | 88.80687 | 24576 ft | 474 kts | 112° |
| 2026-05-05 19:40 | 24.36293 | 88.84074 | 24050 ft | 469 kts | 112° |
| 2026-05-05 19:40 | 24.35189 | 88.87425 | 23499 ft | 465 kts | 111° |
| 2026-05-05 19:41 | 24.34081 | 88.90752 | 22912 ft | 461 kts | 111° |
| 2026-05-05 19:41 | 24.32982 | 88.94025 | 22376 ft | 455 kts | 111° |
| 2026-05-05 19:41 | 24.31891 | 88.97260 | 21862 ft | 448 kts | 112° |
| 2026-05-05 19:41 | 24.30816 | 89.00436 | 21339 ft | 442 kts | 112° |
| 2026-05-05 19:42 | 24.29750 | 89.03585 | 20833 ft | 437 kts | 112° |
| 2026-05-05 19:42 | 24.28700 | 89.06681 | 20325 ft | 431 kts | 112° |
| 2026-05-05 19:42 | 24.27662 | 89.09742 | 19830 ft | 426 kts | 112° |
| 2026-05-05 19:42 | 24.26637 | 89.12766 | 19335 ft | 421 kts | 112° |
| 2026-05-05 19:43 | 24.25624 | 89.15753 | 18849 ft | 416 kts | 112° |
| 2026-05-05 19:43 | 24.24621 | 89.18707 | 18363 ft | 411 kts | 112° |
| 2026-05-05 19:43 | 24.23631 | 89.21625 | 17859 ft | 406 kts | 112° |
| 2026-05-05 19:43 | 24.22663 | 89.24473 | 17353 ft | 400 kts | 112° |
| 2026-05-05 19:44 | 24.21699 | 89.27311 | 16889 ft | 395 kts | 112° |
| 2026-05-05 19:44 | 24.20746 | 89.30111 | 16407 ft | 391 kts | 112° |
| 2026-05-05 19:44 | 24.19801 | 89.32885 | 15934 ft | 387 kts | 112° |
| 2026-05-05 19:44 | 24.18861 | 89.35642 | 15462 ft | 384 kts | 112° |
| 2026-05-05 19:45 | 24.17931 | 89.38370 | 14989 ft | 381 kts | 112° |
| 2026-05-05 19:45 | 24.17007 | 89.41077 | 14519 ft | 378 kts | 112° |
| 2026-05-05 19:45 | 24.16089 | 89.43766 | 14040 ft | 375 kts | 112° |
| 2026-05-05 19:45 | 24.15175 | 89.46439 | 13572 ft | 373 kts | 112° |
| 2026-05-05 19:46 | 24.14271 | 89.49085 | 13068 ft | 369 kts | 112° |
| 2026-05-05 19:46 | 24.13374 | 89.51708 | 12596 ft | 366 kts | 112° |
| 2026-05-05 19:46 | 24.12486 | 89.54301 | 12144 ft | 362 kts | 112° |
| 2026-05-05 19:46 | 24.11592 | 89.56869 | 11705 ft | 358 kts | 113° |
| 2026-05-05 19:47 | 24.10699 | 89.59354 | 11255 ft | 355 kts | 113° |
| 2026-05-05 19:47 | 24.09793 | 89.61857 | 10816 ft | 352 kts | 113° |
| 2026-05-05 19:47 | 24.08894 | 89.64340 | 10359 ft | 350 kts | 113° |
| 2026-05-05 19:47 | 24.08012 | 89.66778 | 10179 ft | 337 kts | 113° |
| 2026-05-05 19:48 | 24.07168 | 89.69110 | 10092 ft | 322 kts | 113° |
| 2026-05-05 19:48 | 24.06359 | 89.71345 | 9940 ft | 310 kts | 112° |
| 2026-05-05 19:48 | 24.05578 | 89.73500 | 9788 ft | 301 kts | 112° |
| 2026-05-05 19:48 | 24.04802 | 89.75637 | 9401 ft | 302 kts | 112° |
| 2026-05-05 19:49 | 24.04025 | 89.77776 | 9037 ft | 302 kts | 112° |
| 2026-05-05 19:49 | 24.03511 | 89.79188 | 8810 ft | 301 kts | 112° |
| 2026-05-05 19:49 | 24.02482 | 89.82022 | 8369 ft | 298 kts | 112° |
| 2026-05-05 19:49 | 24.01718 | 89.84125 | 8038 ft | 297 kts | 112° |
| 2026-05-05 19:50 | 24.00968 | 89.86187 | 7710 ft | 295 kts | 112° |
| 2026-05-05 19:50 | 24.00212 | 89.88267 | 7386 ft | 293 kts | 112° |
| 2026-05-05 19:50 | 23.99461 | 89.90332 | 7068 ft | 291 kts | 112° |
| 2026-05-05 19:50 | 23.98713 | 89.92385 | 6739 ft | 290 kts | 112° |
| 2026-05-05 19:51 | 23.97970 | 89.94427 | 6430 ft | 288 kts | 112° |
| 2026-05-05 19:51 | 23.97229 | 89.96459 | 6099 ft | 286 kts | 112° |
| 2026-05-05 19:51 | 23.96507 | 89.98480 | 5775 ft | 284 kts | 111° |
| 2026-05-05 19:51 | 23.95830 | 90.00506 | 5468 ft | 281 kts | 110° |
| 2026-05-05 19:52 | 23.95179 | 90.02492 | 5299 ft | 274 kts | 110° |
| 2026-05-05 19:52 | 23.94541 | 90.04444 | 5025 ft | 272 kts | 110° |
| 2026-05-05 19:52 | 23.93905 | 90.06386 | 4718 ft | 271 kts | 110° |
| 2026-05-05 19:52 | 23.93271 | 90.08323 | 4409 ft | 270 kts | 110° |
| 2026-05-05 19:53 | 23.92639 | 90.10251 | 4102 ft | 269 kts | 110° |
| 2026-05-05 19:53 | 23.92017 | 90.12147 | 3810 ft | 267 kts | 110° |
| 2026-05-05 19:53 | 23.91391 | 90.14055 | 3501 ft | 266 kts | 110° |
| 2026-05-05 19:53 | 23.90766 | 90.15959 | 3248 ft | 264 kts | 110° |
| 2026-05-05 19:54 | 23.90172 | 90.17817 | 3138 ft | 254 kts | 106° |
| 2026-05-05 19:54 | 23.90048 | 90.19692 | 3035 ft | 244 kts | 77° |
| 2026-05-05 19:54 | 23.90808 | 90.21244 | 3028 ft | 226 kts | 44° |
| 2026-05-05 19:54 | 23.91995 | 90.22306 | 2999 ft | 218 kts | 37° |
| 2026-05-05 19:55 | 23.93233 | 90.23244 | 2814 ft | 217 kts | 30° |
| 2026-05-05 19:55 | 23.94482 | 90.24112 | 2675 ft | 208 kts | 33° |
| 2026-05-05 19:55 | 23.95599 | 90.25020 | 2574 ft | 199 kts | 38° |
| 2026-05-05 19:55 | 23.96627 | 90.26021 | 2437 ft | 198 kts | 45° |
| 2026-05-05 19:56 | 23.97362 | 90.27277 | 2328 ft | 198 kts | 73° |
| 2026-05-05 19:56 | 23.97381 | 90.28749 | 2203 ft | 195 kts | 108° |
| 2026-05-05 19:56 | 23.96654 | 90.29966 | 2077 ft | 192 kts | 140° |
| 2026-05-05 19:56 | 23.95585 | 90.30820 | 2012 ft | 190 kts | 148° |
| 2026-05-05 19:57 | 23.94501 | 90.31648 | 1998 ft | 190 kts | 146° |
| 2026-05-05 19:57 | 23.93793 | 90.32215 | 1966 ft | 190 kts | 146° |
| 2026-05-05 19:57 | 23.92374 | 90.33363 | 1672 ft | 189 kts | 146° |
| 2026-05-05 19:57 | 23.91326 | 90.34199 | 1407 ft | 183 kts | 146° |
| 2026-05-05 19:58 | 23.90335 | 90.34989 | 1195 ft | 169 kts | 146° |
| 2026-05-05 19:58 | 23.89430 | 90.35711 | 994 ft | 154 kts | 146° |
| 2026-05-05 19:58 | 23.88602 | 90.36371 | 804 ft | 140 kts | 146° |
| 2026-05-05 19:58 | 23.87844 | 90.36976 | 645 ft | 133 kts | 144° |
| 2026-05-05 19:59 | 23.87109 | 90.37562 | 464 ft | 132 kts | 144° |
| 2026-05-05 19:59 | 23.86368 | 90.38150 | 295 ft | 131 kts | 144° |
| 2026-05-05 19:59 | 23.85631 | 90.38744 | 106 ft | 132 kts | 143° |
| 2026-05-05 19:59 | 23.84928 | 90.39311 | 40 ft | 107 kts | 144° |
| 2026-05-05 20:00 | 23.84484 | 90.39662 | 40 ft | 53 kts | 144° |
| 2026-05-05 20:00 | 23.84213 | 90.39877 | 39 ft | 31 kts | 143° |
| 2026-05-05 20:00 | 23.84089 | 90.40015 | 40 ft | 24 kts | 124° |
| 2026-05-05 20:00 | 23.84016 | 90.40171 | 40 ft | 23 kts | 113° |
| 2026-05-05 20:01 | 23.84000 | 90.40340 | 40 ft | 22 kts | 82° |
| 2026-05-05 20:01 | 23.84053 | 90.40467 | 40 ft | 15 kts | 53° |
| 2026-05-05 20:01 | 23.84112 | 90.40554 | 40 ft | 14 kts | 50° |
| 2026-05-05 20:01 | 23.84188 | 90.40563 | 40 ft | 12 kts | 328° |
| 2026-05-05 20:02 | 23.84265 | 90.40502 | 40 ft | 15 kts | 324° |
| 2026-05-05 20:02 | 23.84355 | 90.40431 | 40 ft | 17 kts | 324° |
| 2026-05-05 20:02 | 23.84458 | 90.40349 | 40 ft | 18 kts | 324° |
| 2026-05-05 20:02 | 23.84532 | 90.40291 | 40 ft | 13 kts | 324° |
| 2026-05-05 20:03 | 23.84602 | 90.40239 | 40 ft | 10 kts | 335° |
| 2026-05-05 20:03 | 23.84656 | 90.40262 | 40 ft | 9 kts | 51° |
| 2026-05-05 20:03 | 23.84702 | 90.40319 | 40 ft | 11 kts | 37° |
| 2026-05-05 20:03 | 23.84756 | 90.40338 | 40 ft | 7 kts | 40° |
| 2026-05-05 20:04 | 23.84781 | 90.40376 | 39 ft | 4 kts | 54° |
| 2026-05-05 20:04 | 23.84788 | 90.40387 | 40 ft | 1 kts | 54° |
| 2026-05-05 20:04 | 23.84789 | 90.40388 | 40 ft | 0 kts | 54° |